Time;durP1;ratioP1;P1;durP2;ratioP2;P2;SDS_P1;SDS_P2;PMS_P1;PMS_P2;Temp;Humidity;BMP_temperature;BMP_pressure;BME280_temperature;BME280_humidity;BME280_pressure;Samples;Min_cycle;Max_cycle;Signal;HPM_P1;HPM_P2
2023/10/20 00:00:07;;;;;;;61.63;37.53;;;8.20;99.90;;;;;;5033065;28;20021;-81
2023/10/20 00:02:36;;;;;;;59.55;36.75;;;8.20;99.90;;;;;;5034024;28;20088;-81
2023/10/20 00:05:05;;;;;;;64.43;39.92;;;8.20;99.90;;;;;;5034345;28;20487;-76
2023/10/20 00:07:31;;;;;;;62.17;39.17;;;8.20;99.90;;;;;;5032588;28;20010;-80
2023/10/20 00:09:56;;;;;;;61.88;38.80;;;8.30;99.90;;;;;;5024311;28;20484;-75
2023/10/20 00:12:22;;;;;;;63.60;39.35;;;8.30;99.90;;;;;;5029888;28;20017;-76
2023/10/20 00:14:48;;;;;;;63.45;37.83;;;8.30;99.90;;;;;;5034056;28;20032;-81
2023/10/20 00:17:14;;;;;;;64.00;36.92;;;8.30;99.90;;;;;;5034731;28;20376;-81
2023/10/20 00:19:40;;;;;;;59.72;35.83;;;8.30;99.90;;;;;;5033877;28;20021;-75
2023/10/20 00:22:06;;;;;;;52.25;34.17;;;8.40;99.90;;;;;;5032395;28;20541;-80
2023/10/20 00:24:31;;;;;;;55.17;35.58;;;8.40;99.90;;;;;;5034774;28;20029;-77
2023/10/20 00:26:57;;;;;;;61.72;37.95;;;8.40;99.90;;;;;;5033656;28;20059;-81
2023/10/20 00:29:23;;;;;;;64.47;38.10;;;8.40;99.90;;;;;;5033276;28;20371;-81
2023/10/20 00:31:48;;;;;;;55.85;34.75;;;8.40;99.90;;;;;;5034614;28;20049;-77
2023/10/20 00:34:14;;;;;;;58.15;35.45;;;8.40;99.90;;;;;;5023687;28;20052;-81
2023/10/20 00:36:40;;;;;;;51.08;32.85;;;8.50;99.90;;;;;;5031915;28;20037;-81
2023/10/20 00:39:06;;;;;;;60.78;38.20;;;8.50;99.90;;;;;;5026695;28;20026;-81
2023/10/20 00:41:34;;;;;;;59.25;38.65;;;8.50;99.90;;;;;;5033205;28;20071;-80
2023/10/20 00:44:00;;;;;;;51.38;32.83;;;8.50;99.90;;;;;;5033474;28;20405;-80
2023/10/20 00:46:26;;;;;;;59.15;35.33;;;8.50;99.90;;;;;;5031740;28;20024;-77
2023/10/20 00:48:52;;;;;;;59.20;33.63;;;8.50;99.90;;;;;;5032109;28;20050;-81
2023/10/20 00:51:18;;;;;;;53.05;32.92;;;8.50;99.90;;;;;;5038985;28;20541;-77
2023/10/20 00:53:45;;;;;;;48.95;32.88;;;8.50;99.90;;;;;;5033292;28;20393;-82
2023/10/20 00:56:11;;;;;;;47.97;32.20;;;8.60;99.90;;;;;;5033165;28;20034;-82
2023/10/20 00:58:37;;;;;;;62.22;34.78;;;8.60;99.90;;;;;;5033267;28;20018;-82
2023/10/20 01:01:06;;;;;;;53.00;32.38;;;8.60;99.90;;;;;;5032875;28;20036;-77
2023/10/20 01:03:35;;;;;;;48.95;30.60;;;8.60;99.90;;;;;;5031505;28;20017;-76
2023/10/20 01:06:04;;;;;;;47.38;30.92;;;8.60;99.90;;;;;;5031859;28;20398;-76
2023/10/20 01:08:30;;;;;;;52.40;31.55;;;8.60;99.90;;;;;;5031280;28;20032;-76
2023/10/20 01:10:56;;;;;;;53.10;30.95;;;8.60;99.90;;;;;;5031638;28;20072;-81
2023/10/20 01:13:22;;;;;;;47.63;29.00;;;8.70;99.90;;;;;;5032742;28;20021;-76
2023/10/20 01:15:49;;;;;;;53.20;31.27;;;8.70;99.90;;;;;;5037842;28;20537;-81
2023/10/20 01:18:15;;;;;;;46.40;30.70;;;8.70;99.90;;;;;;5036961;28;20026;-80
2023/10/20 01:20:40;;;;;;;48.50;30.55;;;8.70;99.90;;;;;;5031583;28;20021;-76
2023/10/20 01:23:06;;;;;;;53.05;31.98;;;8.70;99.90;;;;;;5032742;28;20029;-81
2023/10/20 01:25:32;;;;;;;56.78;33.53;;;8.70;99.90;;;;;;5031658;28;20022;-76
2023/10/20 01:27:58;;;;;;;58.08;33.58;;;8.70;99.90;;;;;;5032530;28;20065;-81
2023/10/20 01:30:25;;;;;;;48.53;31.40;;;8.70;99.90;;;;;;5031493;28;20021;-81
2023/10/20 01:32:51;;;;;;;55.13;32.58;;;8.70;99.90;;;;;;5032404;28;20029;-76
2023/10/20 01:35:17;;;;;;;52.55;32.15;;;8.70;99.90;;;;;;5032852;28;20490;-81
2023/10/20 01:37:43;;;;;;;54.53;33.65;;;8.70;99.90;;;;;;5031947;28;20052;-81
2023/10/20 01:40:11;;;;;;;52.88;31.92;;;8.80;99.90;;;;;;5031533;28;20029;-76
2023/10/20 01:42:37;;;;;;;47.40;29.73;;;8.80;99.90;;;;;;5032242;28;20018;-81
2023/10/20 01:45:04;;;;;;;44.88;29.00;;;8.80;99.90;;;;;;5035118;28;20368;-77
2023/10/20 01:47:30;;;;;;;49.85;31.15;;;8.80;99.90;;;;;;5031980;28;20127;-81
2023/10/20 01:49:56;;;;;;;55.40;32.30;;;8.80;99.90;;;;;;5031231;28;20014;-77
2023/10/20 01:52:22;;;;;;;50.15;31.90;;;8.80;99.90;;;;;;5019418;28;20052;-77
2023/10/20 01:54:48;;;;;;;54.28;35.00;;;8.80;99.90;;;;;;5031314;28;20014;-81
2023/10/20 01:57:13;;;;;;;48.03;32.95;;;8.80;99.90;;;;;;5030945;28;20036;-76
2023/10/20 01:59:39;;;;;;;49.05;32.33;;;8.90;99.90;;;;;;5031321;28;20033;-76
2023/10/20 02:02:05;;;;;;;48.17;31.83;;;8.90;99.90;;;;;;5030937;28;20033;-81
2023/10/20 02:04:31;;;;;;;46.67;29.23;;;8.90;99.90;;;;;;5032313;28;20088;-76
2023/10/20 02:06:57;;;;;;;45.38;29.30;;;8.90;99.90;;;;;;5030946;28;20018;-81
2023/10/20 02:09:25;;;;;;;42.97;27.38;;;8.90;99.90;;;;;;5032409;28;20106;-76
2023/10/20 02:11:58;;;;;;;43.95;28.77;;;8.90;99.90;;;;;;5031066;28;20076;-81
2023/10/20 02:14:24;;;;;;;42.78;29.45;;;9.00;99.90;;;;;;5041623;28;20032;-81
2023/10/20 02:16:54;;;;;;;51.88;30.02;;;9.00;99.90;;;;;;5035246;28;20061;-76
2023/10/20 02:19:19;;;;;;;38.47;28.27;;;9.00;99.90;;;;;;5033495;28;20036;-76
2023/10/20 02:21:47;;;;;;;43.50;28.17;;;9.00;99.90;;;;;;5034805;28;20021;-76
2023/10/20 02:24:13;;;;;;;49.20;30.13;;;9.00;99.90;;;;;;5034785;28;20025;-76
2023/10/20 02:26:39;;;;;;;47.00;29.85;;;9.00;99.90;;;;;;5035897;28;20100;-81
2023/10/20 02:29:04;;;;;;;43.35;29.73;;;9.00;99.90;;;;;;5035982;28;20028;-81
2023/10/20 02:31:30;;;;;;;44.58;29.52;;;9.00;99.90;;;;;;5034578;28;20014;-76
2023/10/20 02:33:56;;;;;;;46.00;30.38;;;9.00;99.90;;;;;;5034679;28;20024;-76
2023/10/20 02:36:22;;;;;;;45.28;27.42;;;9.00;99.90;;;;;;5034283;28;20017;-76
2023/10/20 02:38:54;;;;;;;46.60;29.10;;;9.00;99.90;;;;;;5034460;28;20025;-76
2023/10/20 02:41:20;;;;;;;47.93;29.60;;;9.10;99.90;;;;;;5022584;28;20017;-81
2023/10/20 02:43:46;;;;;;;42.65;28.52;;;9.10;99.90;;;;;;5038630;28;20275;-75
2023/10/20 02:46:16;;;;;;;42.40;29.77;;;9.10;99.90;;;;;;5036611;28;20039;-81
2023/10/20 02:48:42;;;;;;;43.22;29.08;;;9.10;99.90;;;;;;5034298;28;20053;-82
2023/10/20 02:51:12;;;;;;;40.42;26.92;;;9.20;99.90;;;;;;5034079;28;20025;-76
2023/10/20 02:53:41;;;;;;;41.75;28.27;;;9.10;99.90;;;;;;5034351;28;20046;-81
2023/10/20 02:56:15;;;;;;;46.35;30.35;;;9.10;99.90;;;;;;5033872;28;20071;-81
2023/10/20 02:58:44;;;;;;;48.38;30.02;;;9.10;99.90;;;;;;5034061;28;20036;-80
2023/10/20 03:01:13;;;;;;;42.65;29.15;;;9.20;99.90;;;;;;5035271;28;20029;-76
2023/10/20 03:03:40;;;;;;;57.67;33.72;;;9.20;99.90;;;;;;5035139;28;20087;-76
2023/10/20 03:06:06;;;;;;;46.13;30.45;;;9.20;99.90;;;;;;5035229;28;20057;-75
2023/10/20 03:08:34;;;;;;;47.75;33.20;;;9.20;99.90;;;;;;5033727;28;20112;-80
2023/10/20 03:11:00;;;;;;;52.17;34.33;;;9.20;99.90;;;;;;5035284;28;20068;-76
2023/10/20 03:13:26;;;;;;;50.03;34.25;;;9.30;99.90;;;;;;5041724;28;20009;-76
2023/10/20 03:15:53;;;;;;;53.90;34.95;;;9.20;99.90;;;;;;5035075;28;20014;-75
2023/10/20 03:18:19;;;;;;;47.40;33.17;;;9.20;99.90;;;;;;5033650;28;20057;-79
2023/10/20 03:20:46;;;;;;;52.42;33.80;;;9.20;99.90;;;;;;5033819;28;20052;-80
2023/10/20 03:23:13;;;;;;;52.90;34.25;;;9.20;99.90;;;;;;5034812;28;20021;-80
2023/10/20 03:25:40;;;;;;;56.58;39.65;;;9.20;99.90;;;;;;5035024;28;20033;-82
2023/10/20 03:28:06;;;;;;;51.22;33.45;;;9.20;99.90;;;;;;5041887;28;20033;-77
2023/10/20 03:30:39;;;;;;;55.95;36.47;;;9.20;99.90;;;;;;5033603;28;20430;-77
2023/10/20 03:33:10;;;;;;;53.65;34.65;;;9.20;99.90;;;;;;5033266;28;20053;-78
2023/10/20 03:35:36;;;;;;;52.22;33.83;;;9.20;99.90;;;;;;5034760;28;20040;-82
2023/10/20 03:38:04;;;;;;;53.78;33.30;;;9.20;99.90;;;;;;5034297;28;20056;-77
2023/10/20 03:41:04;;;;;;;47.15;31.08;;;9.20;99.90;;;;;;5014080;28;20030;-77
2023/10/20 03:43:24;;;;;;;47.40;29.83;;;9.10;99.90;;;;;;5036221;28;20495;-77
2023/10/20 03:45:51;;;;;;;52.15;34.00;;;9.10;99.90;;;;;;5032964;28;20033;-82
2023/10/20 03:48:19;;;;;;;52.83;35.70;;;9.10;99.90;;;;;;5033119;28;20140;-82
2023/10/20 03:50:47;;;;;;;56.75;35.28;;;9.10;99.90;;;;;;5034369;28;20029;-81
2023/10/20 03:53:23;;;;;;;54.83;35.95;;;9.10;99.90;;;;;;5033907;28;20032;-76
2023/10/20 03:56:01;;;;;;;48.35;32.28;;;9.10;99.90;;;;;;5032830;28;20075;-76
2023/10/20 03:58:30;;;;;;;60.53;36.72;;;9.10;99.90;;;;;;5034332;28;20051;-77
2023/10/20 04:00:57;;;;;;;56.15;35.35;;;9.20;99.90;;;;;;5036437;28;20029;-77
2023/10/20 04:03:26;;;;;;;57.40;36.10;;;9.10;99.90;;;;;;5039354;28;20021;-77
2023/10/20 04:05:52;;;;;;;61.40;36.08;;;9.10;99.90;;;;;;5032973;28;20136;-81
2023/10/20 04:08:19;;;;;;;58.65;37.53;;;9.10;99.90;;;;;;5032818;28;20025;-76
2023/10/20 04:10:45;;;;;;;62.92;36.97;;;9.20;99.90;;;;;;5033769;28;20545;-77
2023/10/20 04:13:12;;;;;;;52.05;33.83;;;9.10;99.90;;;;;;5033965;28;20034;-81
2023/10/20 04:15:42;;;;;;;58.45;36.00;;;9.10;99.90;;;;;;5033943;28;20387;-77
2023/10/20 04:18:08;;;;;;;56.80;33.95;;;9.10;99.90;;;;;;5032542;28;20029;-77
2023/10/20 04:20:39;;;;;;;55.10;33.75;;;9.10;99.90;;;;;;5045086;28;20064;-76
2023/10/20 04:23:07;;;;;;;53.05;32.55;;;9.10;99.90;;;;;;5026520;28;20033;-76
2023/10/20 04:25:54;;;;;;;50.17;32.38;;;9.20;99.90;;;;;;5020499;28;20530;-76
2023/10/20 04:28:28;;;;;;;56.83;36.38;;;9.10;99.90;;;;;;5033536;28;20056;-81
2023/10/20 04:47:36;;;;;;;53.53;33.30;;;9.20;99.90;;;;;;5033191;28;20075;-76
2023/10/20 04:57:50;;;;;;;46.70;30.30;;;9.20;99.90;;;;;;5029951;28;20040;-76
2023/10/20 05:07:57;;;;;;;55.03;33.33;;;9.30;99.90;;;;;;5031648;28;20064;-82
2023/10/20 05:10:24;;;;;;;54.20;33.85;;;9.30;99.90;;;;;;5029445;28;20040;-81
2023/10/20 05:12:50;;;;;;;59.30;35.65;;;9.30;99.90;;;;;;5018100;28;20037;-81
2023/10/20 05:15:17;;;;;;;53.03;34.55;;;9.40;99.90;;;;;;5052541;28;20040;-80
2023/10/20 05:17:46;;;;;;;58.33;37.22;;;9.30;99.90;;;;;;5052588;28;20025;-80
2023/10/20 05:20:13;;;;;;;51.42;34.92;;;9.30;99.90;;;;;;5057985;28;20066;-81
2023/10/20 05:22:42;;;;;;;50.80;32.40;;;9.40;99.90;;;;;;5056451;28;20027;-81
2023/10/20 05:25:11;;;;;;;52.60;31.50;;;9.40;99.90;;;;;;5051230;28;20103;-81
2023/10/20 05:27:37;;;;;;;48.22;29.30;;;9.40;99.90;;;;;;5050381;28;20025;-81
2023/10/20 05:30:03;;;;;;;51.85;29.13;;;9.40;99.90;;;;;;5050347;28;20028;-81
2023/10/20 05:32:31;;;;;;;40.67;27.73;;;9.40;99.90;;;;;;5050265;28;20124;-81
2023/10/20 05:35:00;;;;;;;43.92;27.33;;;9.40;99.90;;;;;;5049115;28;20577;-80
2023/10/20 05:37:27;;;;;;;43.13;27.13;;;9.40;99.90;;;;;;5049653;28;20025;-81
2023/10/20 05:39:53;;;;;;;41.92;25.70;;;9.40;99.90;;;;;;5051986;28;20104;-81
2023/10/20 05:42:18;;;;;;;41.97;25.95;;;9.40;99.90;;;;;;5047234;28;20090;-76
2023/10/20 05:47:31;;;;;;;42.15;28.40;;;9.40;99.90;;;;;;5050019;28;20044;-81
2023/10/20 05:49:59;;;;;;;42.97;26.48;;;9.50;99.90;;;;;;5051390;28;20367;-81
2023/10/20 05:52:24;;;;;;;43.00;26.90;;;9.50;99.90;;;;;;5052088;28;20021;-81
2023/10/20 05:54:50;;;;;;;44.35;27.55;;;9.50;99.90;;;;;;5053369;28;20028;-81
2023/10/20 05:57:16;;;;;;;48.05;28.02;;;9.50;99.90;;;;;;5056205;28;20134;-81
2023/10/20 05:59:43;;;;;;;43.28;27.05;;;9.50;99.90;;;;;;5055679;28;20066;-81
2023/10/20 06:02:08;;;;;;;44.28;25.52;;;9.50;99.90;;;;;;5054165;28;20090;-81
2023/10/20 06:04:34;;;;;;;43.78;27.52;;;9.50;99.90;;;;;;5054389;28;20471;-76
2023/10/20 06:07:01;;;;;;;52.90;29.42;;;9.50;99.90;;;;;;5054208;28;20021;-76
2023/10/20 06:09:27;;;;;;;49.00;28.45;;;9.50;99.90;;;;;;5049285;28;20112;-81
2023/10/20 06:11:56;;;;;;;49.55;29.20;;;9.50;99.90;;;;;;5054354;28;20025;-81
2023/10/20 06:14:25;;;;;;;47.45;29.60;;;9.50;99.90;;;;;;5050963;28;20160;-81
2023/10/20 06:16:52;;;;;;;46.42;28.45;;;9.60;99.90;;;;;;5046216;28;20510;-77
2023/10/20 06:19:18;;;;;;;50.28;30.38;;;9.60;99.90;;;;;;5050127;28;20082;-76
2023/10/20 06:21:45;;;;;;;49.33;28.33;;;9.60;99.90;;;;;;5053161;28;20545;-76
2023/10/20 06:24:11;;;;;;;49.90;27.58;;;9.60;99.90;;;;;;5053342;28;20031;-81
2023/10/20 06:26:37;;;;;;;44.67;27.30;;;9.60;99.90;;;;;;5055658;28;20112;-76
2023/10/20 06:29:17;;;;;;;44.90;28.85;;;9.60;99.90;;;;;;5053684;28;20032;-81
2023/10/20 06:31:42;;;;;;;44.45;26.70;;;9.60;99.90;;;;;;5046273;28;20020;-80
2023/10/20 06:34:23;;;;;;;44.80;25.50;;;9.60;99.90;;;;;;5040947;28;20111;-76
2023/10/20 06:37:14;;;;;;;42.10;26.55;;;9.60;99.90;;;;;;5052652;28;20111;-76
2023/10/20 06:39:40;;;;;;;50.25;27.05;;;9.60;99.90;;;;;;5045911;28;20016;-80
2023/10/20 06:42:06;;;;;;;53.72;27.83;;;9.70;99.90;;;;;;5043642;28;20021;-81
2023/10/20 06:44:34;;;;;;;42.65;27.38;;;9.70;99.90;;;;;;5051720;28;20024;-81
2023/10/20 06:46:59;;;;;;;45.85;27.65;;;9.70;99.90;;;;;;5054160;28;20114;-76
2023/10/20 06:49:26;;;;;;;46.78;26.90;;;9.70;99.90;;;;;;5046240;28;20033;-81
2023/10/20 06:51:51;;;;;;;44.70;25.65;;;9.70;99.90;;;;;;5054110;28;20055;-76
2023/10/20 06:54:17;;;;;;;46.67;25.77;;;9.80;99.90;;;;;;5051526;28;20044;-76
2023/10/20 06:56:44;;;;;;;42.17;23.48;;;9.90;99.90;;;;;;5046825;28;20025;-81
2023/10/20 06:59:13;;;;;;;42.72;25.42;;;9.90;99.90;;;;;;5052709;28;20013;-77
2023/10/20 07:01:40;;;;;;;42.80;25.23;;;10.00;99.90;;;;;;5062093;28;20120;-76
2023/10/20 07:04:08;;;;;;;41.92;24.63;;;10.00;99.90;;;;;;5052445;28;20029;-79
2023/10/20 07:06:37;;;;;;;36.67;23.75;;;10.10;99.90;;;;;;5053932;28;20032;-81
2023/10/20 07:09:13;;;;;;;38.28;24.13;;;10.10;99.90;;;;;;5053561;28;20021;-81
2023/10/20 07:11:39;;;;;;;34.90;22.10;;;10.20;99.90;;;;;;5052990;28;20025;-77
2023/10/20 07:14:05;;;;;;;45.92;25.42;;;10.30;99.90;;;;;;5051743;28;20060;-77
2023/10/20 07:16:32;;;;;;;38.13;23.30;;;10.30;99.90;;;;;;5048591;28;20456;-77
2023/10/20 07:18:57;;;;;;;38.65;24.48;;;10.30;99.90;;;;;;5053916;28;20048;-78
2023/10/20 07:21:23;;;;;;;41.55;26.50;;;10.40;99.90;;;;;;5040516;28;20052;-76
2023/10/20 07:23:49;;;;;;;47.53;29.05;;;10.40;99.90;;;;;;5053501;28;20470;-81
2023/10/20 07:26:17;;;;;;;44.75;26.08;;;10.50;99.90;;;;;;5054104;28;20052;-77
2023/10/20 07:28:44;;;;;;;36.88;22.83;;;10.60;99.90;;;;;;5051634;28;20108;-76
2023/10/20 07:31:17;;;;;;;42.17;25.08;;;10.60;99.90;;;;;;5052948;28;20054;-81
2023/10/20 07:33:43;;;;;;;39.75;25.65;;;10.60;99.90;;;;;;5052933;28;20386;-77
2023/10/20 07:36:09;;;;;;;41.50;26.67;;;10.70;99.90;;;;;;5054175;28;20040;-81
2023/10/20 07:38:34;;;;;;;39.17;25.80;;;10.70;99.90;;;;;;5042437;28;20448;-81
2023/10/20 07:41:11;;;;;;;39.05;23.77;;;10.80;99.90;;;;;;5047555;28;20514;-77
2023/10/20 07:43:38;;;;;;;37.42;22.65;;;10.80;99.90;;;;;;5044252;28;20017;-81
2023/10/20 07:46:04;;;;;;;37.28;22.70;;;10.80;99.90;;;;;;5036554;28;20374;-81
2023/10/20 07:48:32;;;;;;;34.13;21.45;;;10.90;99.90;;;;;;5012260;28;1182648;-76
2023/10/20 07:51:01;;;;;;;29.13;20.10;;;10.90;99.90;;;;;;5046558;28;20025;-77
2023/10/20 07:53:29;;;;;;;36.20;21.05;;;10.90;99.90;;;;;;5051000;28;20044;-76
2023/10/20 07:55:55;;;;;;;29.30;20.00;;;11.00;99.90;;;;;;5054127;28;20033;-76
2023/10/20 07:58:21;;;;;;;34.55;21.77;;;11.00;99.90;;;;;;5054489;28;20052;-76
2023/10/20 08:00:47;;;;;;;32.53;21.42;;;11.00;99.90;;;;;;5052991;28;20112;-81
2023/10/20 08:03:12;;;;;;;37.00;21.90;;;11.10;99.90;;;;;;5064636;28;20111;-76
2023/10/20 08:05:39;;;;;;;35.25;22.70;;;11.10;99.90;;;;;;5053925;28;20029;-77
2023/10/20 08:08:05;;;;;;;37.03;23.17;;;11.10;99.90;;;;;;5055072;28;20060;-81
2023/10/20 08:10:31;;;;;;;33.90;21.13;;;11.20;99.90;;;;;;5049444;28;20032;-81
2023/10/20 08:12:56;;;;;;;32.20;20.55;;;11.20;99.90;;;;;;5051567;28;20479;-79
2023/10/20 08:15:26;;;;;;;32.58;20.48;;;11.20;99.90;;;;;;5050511;28;20073;-81
2023/10/20 08:17:52;;;;;;;34.53;20.65;;;11.30;99.90;;;;;;5051708;28;20028;-81
2023/10/20 08:20:18;;;;;;;34.10;22.33;;;11.30;99.90;;;;;;5051165;28;20029;-77
2023/10/20 08:22:43;;;;;;;34.28;20.90;;;11.30;99.90;;;;;;5040971;28;20551;-81
2023/10/20 08:25:09;;;;;;;35.90;20.98;;;11.30;99.90;;;;;;5048545;28;20025;-81
2023/10/20 08:27:36;;;;;;;32.47;20.13;;;11.30;99.90;;;;;;5052289;28;20033;-77
2023/10/20 08:30:02;;;;;;;29.52;18.95;;;11.30;99.90;;;;;;5052310;28;20025;-77
2023/10/20 08:32:28;;;;;;;31.63;20.48;;;11.30;99.90;;;;;;5053512;28;20074;-77
2023/10/20 08:34:54;;;;;;;32.50;19.58;;;11.30;99.90;;;;;;5052223;28;20021;-81
2023/10/20 08:37:20;;;;;;;28.13;19.73;;;11.30;99.90;;;;;;5048977;28;20055;-76
2023/10/20 08:39:45;;;;;;;31.90;20.48;;;11.40;99.90;;;;;;5059092;28;20052;-79
2023/10/20 08:42:19;;;;;;;30.95;20.13;;;11.40;99.90;;;;;;5053248;28;20386;-77
2023/10/20 08:44:45;;;;;;;32.42;20.00;;;11.40;99.90;;;;;;5051223;28;20112;-81
2023/10/20 08:47:13;;;;;;;35.50;21.13;;;11.50;99.90;;;;;;5051686;28;20037;-81
2023/10/20 08:49:42;;;;;;;28.33;20.05;;;11.50;99.90;;;;;;5055263;28;20021;-76
2023/10/20 08:52:10;;;;;;;30.02;20.80;;;11.50;99.90;;;;;;5052969;28;20075;-81
2023/10/20 08:54:37;;;;;;;28.50;19.48;;;11.60;99.90;;;;;;5041094;28;20052;-81
2023/10/20 08:57:03;;;;;;;34.63;21.05;;;11.70;99.90;;;;;;5052878;28;20451;-81
2023/10/20 08:59:29;;;;;;;31.25;20.65;;;11.80;99.90;;;;;;5052913;28;20406;-81
2023/10/20 09:01:55;;;;;;;32.50;21.48;;;11.80;99.90;;;;;;5047751;28;20029;-77
2023/10/20 09:04:22;;;;;;;31.90;21.00;;;11.90;99.90;;;;;;5053315;28;20020;-81
2023/10/20 09:06:49;;;;;;;28.52;20.40;;;11.90;99.90;;;;;;5051606;28;20021;-81
2023/10/20 09:09:16;;;;;;;31.35;20.15;;;12.00;99.90;;;;;;5060277;28;20032;-77
2023/10/20 09:11:42;;;;;;;32.90;21.08;;;12.00;99.90;;;;;;5066063;28;20014;-76
2023/10/20 09:14:07;;;;;;;25.45;18.67;;;12.00;99.90;;;;;;5053423;28;20039;-77
2023/10/20 09:16:34;;;;;;;29.73;19.45;;;12.10;99.90;;;;;;5051030;28;20085;-81
2023/10/20 09:19:00;;;;;;;31.00;19.15;;;12.20;99.90;;;;;;5053860;28;20036;-76
2023/10/20 09:21:28;;;;;;;30.15;19.70;;;12.30;99.90;;;;;;5053798;28;20037;-76
2023/10/20 09:23:55;;;;;;;27.50;18.77;;;12.30;99.90;;;;;;5052559;28;20096;-81
2023/10/20 09:26:21;;;;;;;26.52;17.83;;;12.40;99.90;;;;;;5052130;28;20052;-75
2023/10/20 09:28:48;;;;;;;30.00;18.73;;;12.40;99.90;;;;;;5055602;28;20025;-81
2023/10/20 09:31:18;;;;;;;30.77;20.08;;;12.50;99.90;;;;;;5052500;28;20061;-82
2023/10/20 09:33:44;;;;;;;31.10;20.25;;;12.60;99.90;;;;;;5048401;28;20136;-81
2023/10/20 09:36:11;;;;;;;32.10;20.67;;;12.60;99.90;;;;;;5049936;28;20029;-81
2023/10/20 09:38:37;;;;;;;31.65;21.38;;;12.60;99.90;;;;;;5054843;28;20061;-81
2023/10/20 09:41:12;;;;;;;33.63;19.80;;;12.60;99.90;;;;;;5053154;28;20036;-81
2023/10/20 09:43:55;;;;;;;30.17;19.40;;;12.60;99.90;;;;;;5050605;28;20060;-80
2023/10/20 09:46:53;;;;;;;30.13;19.88;;;12.60;99.90;;;;;;5046904;28;20068;-80
2023/10/20 09:49:25;;;;;;;30.83;19.55;;;12.60;99.90;;;;;;5046951;28;20056;-79
2023/10/20 09:51:52;;;;;;;25.90;18.50;;;12.60;99.90;;;;;;5050541;28;20033;-80
2023/10/20 09:54:27;;;;;;;26.27;18.33;;;12.70;99.90;;;;;;5047647;28;20060;-80
2023/10/20 09:56:54;;;;;;;29.38;18.33;;;12.70;99.90;;;;;;5046457;28;20041;-81
2023/10/20 09:59:21;;;;;;;30.80;19.60;;;12.70;99.90;;;;;;5055389;28;20064;-80
2023/10/20 10:01:47;;;;;;;27.15;17.77;;;12.80;99.90;;;;;;5051933;28;20060;-80
2023/10/20 10:04:13;;;;;;;27.75;18.30;;;12.80;99.90;;;;;;5048981;28;20491;-80
2023/10/20 10:06:43;;;;;;;24.75;17.77;;;12.80;99.90;;;;;;5049773;28;20098;-79
2023/10/20 10:09:10;;;;;;;28.00;18.77;;;12.90;99.90;;;;;;5049214;28;20095;-81
2023/10/20 10:11:42;;;;;;;30.30;18.55;;;12.90;99.90;;;;;;5051013;28;20112;-80
2023/10/20 10:14:16;;;;;;;26.73;18.15;;;13.00;99.90;;;;;;5050594;28;20060;-80
2023/10/20 10:16:53;;;;;;;24.60;17.17;;;13.00;99.90;;;;;;5052954;28;20094;-80
2023/10/20 10:19:21;;;;;;;27.08;17.08;;;13.10;99.90;;;;;;5043385;28;20095;-81
2023/10/20 10:21:53;;;;;;;27.98;18.38;;;13.10;99.90;;;;;;5051160;28;20021;-80
2023/10/20 10:24:20;;;;;;;25.70;17.60;;;13.10;99.90;;;;;;5047150;28;20037;-81
2023/10/20 10:26:53;;;;;;;26.20;17.65;;;13.20;99.90;;;;;;5053390;28;20513;-81
2023/10/20 10:29:21;;;;;;;27.80;17.45;;;13.30;99.90;;;;;;5045645;28;20037;-81
2023/10/20 10:31:48;;;;;;;27.00;17.15;;;13.30;99.90;;;;;;5048263;28;20029;-80
2023/10/20 10:34:14;;;;;;;20.70;15.30;;;13.30;99.90;;;;;;5050735;28;20091;-81
2023/10/20 10:36:43;;;;;;;25.52;16.42;;;13.30;99.90;;;;;;5049585;28;20021;-81
2023/10/20 10:39:21;;;;;;;20.60;14.70;;;13.30;99.90;;;;;;5042056;28;20041;-80
2023/10/20 10:41:47;;;;;;;23.02;14.43;;;13.40;99.90;;;;;;5053415;28;20493;-81
2023/10/20 10:44:12;;;;;;;19.73;13.23;;;13.50;99.90;;;;;;5053356;28;20033;-81
2023/10/20 10:46:38;;;;;;;18.73;13.48;;;13.50;99.90;;;;;;5053041;28;20021;-80
2023/10/20 10:49:10;;;;;;;17.20;13.02;;;13.50;99.90;;;;;;5064492;28;20056;-81
2023/10/20 10:51:46;;;;;;;17.65;13.13;;;13.60;99.90;;;;;;5054506;28;20033;-82
2023/10/20 10:54:12;;;;;;;19.00;14.27;;;13.70;99.90;;;;;;5053448;28;20029;-76
2023/10/20 10:56:41;;;;;;;19.10;14.05;;;13.70;99.90;;;;;;5060836;28;20029;-76
2023/10/20 10:59:08;;;;;;;18.13;12.52;;;13.80;99.90;;;;;;5054353;28;20505;-80
2023/10/20 11:01:34;;;;;;;18.95;13.85;;;13.80;99.90;;;;;;5058834;28;20017;-80
2023/10/20 11:04:00;;;;;;;16.42;12.55;;;13.90;99.90;;;;;;5054819;28;20029;-76
2023/10/20 11:06:26;;;;;;;18.60;12.82;;;13.90;99.90;;;;;;5055400;28;20383;-80
2023/10/20 11:08:52;;;;;;;19.30;13.10;;;13.90;99.90;;;;;;5075038;28;20013;-75
2023/10/20 11:11:18;;;;;;;21.10;13.55;;;13.90;99.90;;;;;;5055904;28;20051;-80
2023/10/20 11:13:45;;;;;;;21.23;13.93;;;14.00;99.90;;;;;;5053819;28;20067;-75
2023/10/20 11:16:13;;;;;;;18.60;13.88;;;14.00;99.90;;;;;;5062403;28;20021;-80
2023/10/20 11:18:43;;;;;;;20.63;13.50;;;14.00;99.90;;;;;;5058024;28;20025;-76
2023/10/20 11:21:12;;;;;;;17.52;13.02;;;14.00;99.90;;;;;;5053870;28;20083;-75
2023/10/20 11:23:37;;;;;;;16.40;12.55;;;14.00;99.90;;;;;;5052617;28;20056;-80
2023/10/20 11:26:17;;;;;;;16.08;12.27;;;13.90;99.90;;;;;;5054258;28;20060;-79
2023/10/20 11:28:44;;;;;;;19.15;13.13;;;13.90;99.90;;;;;;5051818;28;20025;-79
2023/10/20 11:31:11;;;;;;;19.27;13.65;;;13.80;99.90;;;;;;5052832;28;20064;-80
2023/10/20 11:33:37;;;;;;;20.25;13.77;;;13.80;99.90;;;;;;5053332;28;20029;-80
2023/10/20 11:36:04;;;;;;;19.52;12.65;;;13.70;99.90;;;;;;5046314;28;20022;-75
2023/10/20 11:38:32;;;;;;;21.92;14.57;;;13.70;99.90;;;;;;5051074;28;20074;-76
2023/10/20 11:40:59;;;;;;;21.75;14.38;;;13.70;99.90;;;;;;5057319;28;20021;-80
2023/10/20 11:43:25;;;;;;;23.17;14.43;;;13.70;99.90;;;;;;5049343;28;20029;-80
2023/10/20 11:45:50;;;;;;;25.17;16.50;;;13.70;99.90;;;;;;5040661;28;20079;-80
2023/10/20 11:48:17;;;;;;;22.73;16.73;;;13.60;99.90;;;;;;5039819;28;20499;-80
2023/10/20 11:50:43;;;;;;;24.38;16.05;;;13.70;99.90;;;;;;5070584;28;20096;-80
2023/10/20 11:53:08;;;;;;;24.05;15.68;;;13.60;99.90;;;;;;5037261;28;20463;-81
2023/10/20 11:55:34;;;;;;;22.98;16.25;;;13.60;99.90;;;;;;5058815;28;20033;-80
2023/10/20 11:58:03;;;;;;;21.35;15.13;;;13.60;99.90;;;;;;5047380;28;20033;-81
2023/10/20 12:00:29;;;;;;;26.45;17.00;;;13.60;99.90;;;;;;5050198;28;20025;-80
2023/10/20 12:02:55;;;;;;;26.02;16.73;;;13.60;99.90;;;;;;5056017;28;20064;-80
2023/10/20 12:05:20;;;;;;;21.05;15.23;;;13.60;99.90;;;;;;5049935;28;20028;-80
2023/10/20 12:07:46;;;;;;;36.53;17.55;;;13.50;99.90;;;;;;5053997;28;20497;-76
2023/10/20 12:10:15;;;;;;;22.55;16.33;;;13.50;99.90;;;;;;5060212;28;20551;-76
2023/10/20 12:12:41;;;;;;;29.95;18.85;;;13.50;99.90;;;;;;5052369;28;20036;-75
2023/10/20 12:15:07;;;;;;;31.58;18.95;;;13.60;99.90;;;;;;5056640;28;20024;-76
2023/10/20 12:17:33;;;;;;;28.38;19.77;;;13.50;99.90;;;;;;5059352;28;20036;-80
2023/10/20 12:19:59;;;;;;;25.17;17.83;;;13.60;99.90;;;;;;5048434;28;20068;-80
2023/10/20 12:22:28;;;;;;;31.55;19.42;;;13.60;99.90;;;;;;5061195;28;20509;-81
2023/10/20 12:24:53;;;;;;;27.65;19.02;;;13.60;99.90;;;;;;5054305;28;20488;-77
2023/10/20 12:27:20;;;;;;;30.17;18.65;;;13.60;99.90;;;;;;5056225;28;20033;-76
2023/10/20 12:29:46;;;;;;;29.52;20.58;;;13.70;99.90;;;;;;5052984;28;20083;-76
2023/10/20 12:32:15;;;;;;;30.05;21.08;;;13.60;99.90;;;;;;5053157;28;20025;-76
2023/10/20 12:34:40;;;;;;;29.02;20.08;;;13.70;99.90;;;;;;5052758;28;20028;-77
2023/10/20 12:37:06;;;;;;;28.27;19.15;;;13.70;99.90;;;;;;5054864;28;20041;-76
2023/10/20 12:39:32;;;;;;;29.52;19.25;;;13.70;99.90;;;;;;5054252;28;20021;-77
2023/10/20 12:42:02;;;;;;;30.90;19.70;;;13.80;99.90;;;;;;5058312;28;20036;-76
2023/10/20 12:44:29;;;;;;;31.63;20.85;;;13.90;99.90;;;;;;5063617;28;20020;-76
2023/10/20 12:46:55;;;;;;;30.02;18.75;;;13.90;99.90;;;;;;5046344;28;20026;-77
2023/10/20 12:49:21;;;;;;;30.10;20.90;;;13.90;99.90;;;;;;5050110;28;20475;-75
2023/10/20 12:51:46;;;;;;;31.98;20.58;;;13.90;99.90;;;;;;5049117;28;20032;-76
2023/10/20 12:54:12;;;;;;;32.92;21.65;;;13.90;99.90;;;;;;5048008;28;20067;-75
2023/10/20 12:56:38;;;;;;;36.55;22.85;;;13.90;99.90;;;;;;5052871;28;20035;-75
2023/10/20 12:59:04;;;;;;;33.78;21.73;;;13.90;99.90;;;;;;5052479;28;20024;-75
2023/10/20 13:01:29;;;;;;;37.92;23.65;;;13.90;99.90;;;;;;5050885;28;20029;-76
2023/10/20 13:03:55;;;;;;;37.17;23.40;;;13.90;99.90;;;;;;5052235;28;20021;-76
2023/10/20 13:06:21;;;;;;;35.05;25.05;;;14.00;99.90;;;;;;5046644;28;20107;-75